Time,TemperatureF,DewpointF,PressureIn,WindDirection,WindDirectionDegrees,WindSpeedMPH,WindSpeedGustMPH,Humidity,HourlyPrecipIn,Conditions,Clouds,dailyrainin,SoftwareType,DateUTC
2013-06-12 00:01:00,79.3,79.3,30.03,SE,135,0.0,1.0,100,0.00,,,-99.99,WeatherLink 5.5,2013-06-12 04:01:00,
2013-06-12 00:05:00,79.3,79.3,30.03,SE,135,0.0,1.0,100,0.00,,,-99.99,WeatherLink 5.5,2013-06-12 04:05:00,
2013-06-12 00:06:00,79.3,79.3,30.03,SE,135,0.0,1.0,100,0.00,,,-99.99,WeatherLink 5.5,2013-06-12 04:06:00,
2013-06-12 00:16:00,79.3,79.3,30.03,North,-999,0.0,0.0,100,0.00,,,-99.99,WeatherLink 5.5,2013-06-12 04:16:00,
2013-06-12 00:21:00,79.4,79.4,30.04,SE,135,0.0,2.0,100,0.00,,,-99.99,WeatherLink 5.5,2013-06-12 04:21:00,
2013-06-12 00:31:00,79.4,79.4,30.04,North,-999,0.0,0.0,100,0.00,,,-99.99,WeatherLink 5.5,2013-06-12 04:31:00,
2013-06-12 00:36:00,79.5,79.5,30.04,SE,135,0.0,1.0,100,0.00,,,-99.99,WeatherLink 5.5,2013-06-12 04:36:00,
2013-06-12 00:46:00,79.5,79.5,30.04,SE,135,0.0,1.0,100,0.00,,,-99.99,WeatherLink 5.5,2013-06-12 04:46:00,
2013-06-12 00:56:00,79.5,79.5,30.05,North,-999,0.0,0.0,100,0.00,,,-99.99,WeatherLink 5.5,2013-06-12 04:56:00,
2013-06-12 01:06:00,79.5,-99.9,30.05,North,-999,0.0,0.0,-999,0.00,,,-99.99,WeatherLink 5.5,2013-06-12 05:06:00,
2013-06-12 01:16:00,79.6,79.6,30.05,SE,135,0.0,2.0,100,0.00,,,-99.99,WeatherLink 5.5,2013-06-12 05:16:00,
2013-06-12 01:25:00,79.6,-99.9,30.04,North,-999,0.0,0.0,-999,0.00,,,-99.99,WeatherLink 5.5,2013-06-12 05:25:00,
2013-06-12 01:31:00,79.6,79.6,30.04,North,-999,0.0,0.0,100,0.00,,,-99.99,WeatherLink 5.5,2013-06-12 05:31:00,
2013-06-12 01:41:00,79.4,-99.9,30.04,North,-999,0.0,0.0,-999,0.00,,,-99.99,WeatherLink 5.5,2013-06-12 05:41:00,
2013-06-12 01:46:00,79.4,-99.9,30.04,North,-999,0.0,0.0,-999,0.00,,,-99.99,WeatherLink 5.5,2013-06-12 05:46:00,
2013-06-12 01:56:00,79.3,-99.9,30.04,North,-999,0.0,0.0,-999,0.00,,,-99.99,WeatherLink 5.5,2013-06-12 05:56:00,
2013-06-12 02:05:00,79.2,-99.9,30.04,North,-999,0.0,0.0,-999,0.00,,,-99.99,WeatherLink 5.5,2013-06-12 06:05:00,
2013-06-12 02:11:00,79.1,77.9,30.04,North,-999,0.0,0.0,96,0.00,,,-99.99,WeatherLink 5.5,2013-06-12 06:11:00,
2013-06-12 02:21:00,79.1,77.2,30.03,North,-999,0.0,0.0,94,0.00,,,-99.99,WeatherLink 5.5,2013-06-12 06:21:00,
2013-06-12 02:31:00,79.1,-99.9,30.02,North,-999,0.0,0.0,-999,0.00,,,-99.99,WeatherLink 5.5,2013-06-12 06:31:00,
2013-06-12 02:36:00,79.1,-99.9,30.02,North,-999,0.0,0.0,-999,0.00,,,-99.99,WeatherLink 5.5,2013-06-12 06:36:00,
2013-06-12 02:45:00,79.0,75.5,30.02,North,-999,0.0,0.0,89,0.00,,,-99.99,WeatherLink 5.5,2013-06-12 06:45:00,
2013-06-12 02:51:00,78.9,-99.9,30.01,SE,135,0.0,1.0,-999,0.00,,,-99.99,WeatherLink 5.5,2013-06-12 06:51:00,
2013-06-12 03:01:00,78.9,-99.9,30.02,North,-999,0.0,0.0,-999,0.00,,,-99.99,WeatherLink 5.5,2013-06-12 07:01:00,
2013-06-12 03:06:00,78.8,-99.9,30.01,SE,135,0.0,3.0,-999,0.00,,,-99.99,WeatherLink 5.5,2013-06-12 07:06:00,
2013-06-12 03:16:00,78.7,-99.9,30.01,North,-999,0.0,0.0,-999,0.00,,,-99.99,WeatherLink 5.5,2013-06-12 07:16:00,
2013-06-12 03:21:00,78.7,-99.9,30.01,North,-999,0.0,0.0,-999,0.00,,,-99.99,WeatherLink 5.5,2013-06-12 07:21:00,
2013-06-12 03:26:00,78.6,-99.9,30.02,North,-999,0.0,0.0,-999,0.00,,,-99.99,WeatherLink 5.5,2013-06-12 07:26:00,
2013-06-12 03:35:00,78.6,73.0,30.03,North,-999,0.0,0.0,83,0.00,,,-99.99,WeatherLink 5.5,2013-06-12 07:35:00,
2013-06-12 03:36:00,78.6,-99.9,30.06,North,-999,0.0,0.0,-999,0.00,,,-99.99,WeatherLink 5.5,2013-06-12 07:36:00,
2013-06-12 03:40:00,78.6,-99.9,30.05,North,-999,0.0,0.0,-999,0.00,,,-99.99,WeatherLink 5.5,2013-06-12 07:40:00,
2013-06-12 03:45:00,78.7,-99.9,30.01,North,-999,0.0,0.0,-999,0.00,,,-99.99,WeatherLink 5.5,2013-06-12 07:45:00,
2013-06-12 03:50:00,78.7,72.7,29.99,North,-999,0.0,0.0,82,0.00,,,-99.99,WeatherLink 5.5,2013-06-12 07:50:00,
2013-06-12 03:55:00,78.7,-99.9,30.00,North,-999,0.0,0.0,-999,0.00,,,-99.99,WeatherLink 5.5,2013-06-12 07:55:00,
2013-06-12 04:00:00,78.6,-99.9,30.02,North,-999,0.0,0.0,-999,0.00,,,-99.99,WeatherLink 5.5,2013-06-12 08:00:00,
2013-06-12 04:05:00,78.6,72.6,30.00,North,-999,0.0,0.0,82,0.00,,,-99.99,WeatherLink 5.5,2013-06-12 08:05:00,
2013-06-12 04:10:00,78.5,-99.9,30.04,North,-999,0.0,0.0,-999,0.00,,,-99.99,WeatherLink 5.5,2013-06-12 08:10:00,
2013-06-12 04:15:00,78.5,72.5,30.00,North,-999,0.0,0.0,82,0.00,,,-99.99,WeatherLink 5.5,2013-06-12 08:15:00,
2013-06-12 04:20:00,78.5,-99.9,30.02,North,-999,0.0,0.0,-999,0.00,,,-99.99,WeatherLink 5.5,2013-06-12 08:20:00,
2013-06-12 04:25:00,78.4,-99.9,30.03,North,-999,0.0,0.0,-999,0.00,,,-99.99,WeatherLink 5.5,2013-06-12 08:25:00,
2013-06-12 04:30:00,78.4,72.4,30.01,North,-999,0.0,0.0,82,0.00,,,-99.99,WeatherLink 5.5,2013-06-12 08:30:00,
2013-06-12 04:35:00,78.3,-99.9,30.01,North,-999,0.0,0.0,-999,0.00,,,-99.99,WeatherLink 5.5,2013-06-12 08:35:00,
2013-06-12 04:40:00,78.4,-99.9,30.01,North,-999,0.0,0.0,-999,0.00,,,-99.99,WeatherLink 5.5,2013-06-12 08:40:00,
2013-06-12 04:45:00,78.4,-99.9,30.01,SE,135,0.0,2.0,-999,0.00,,,-99.99,WeatherLink 5.5,2013-06-12 08:45:00,
2013-06-12 04:50:00,78.4,-99.9,30.03,North,-999,0.0,0.0,-999,0.00,,,-99.99,WeatherLink 5.5,2013-06-12 08:50:00,
2013-06-12 04:55:00,78.4,-99.9,30.00,North,-999,0.0,0.0,-999,0.00,,,-99.99,WeatherLink 5.5,2013-06-12 08:55:00,
2013-06-12 05:00:00,78.3,72.0,30.03,North,-999,0.0,0.0,81,0.00,,,-99.99,WeatherLink 5.5,2013-06-12 09:00:00,
2013-06-12 05:05:00,78.2,-99.9,30.02,North,-999,0.0,0.0,-999,0.00,,,-99.99,WeatherLink 5.5,2013-06-12 09:05:00,
2013-06-12 05:10:00,78.2,-99.9,30.03,North,-999,0.0,0.0,-999,0.00,,,-99.99,WeatherLink 5.5,2013-06-12 09:10:00,
2013-06-12 05:15:00,78.2,-99.9,30.02,North,-999,0.0,0.0,-999,0.00,,,-99.99,WeatherLink 5.5,2013-06-12 09:15:00,
2013-06-12 05:20:00,78.2,-99.9,30.01,North,-999,0.0,0.0,-999,0.00,,,-99.99,WeatherLink 5.5,2013-06-12 09:20:00,
2013-06-12 05:25:00,78.1,-99.9,30.02,North,-999,0.0,0.0,-999,0.00,,,-99.99,WeatherLink 5.5,2013-06-12 09:25:00,
2013-06-12 05:30:00,78.0,-99.9,30.03,North,-999,0.0,0.0,-999,0.00,,,-99.99,WeatherLink 5.5,2013-06-12 09:30:00,
2013-06-12 05:35:00,77.9,71.6,30.02,North,-999,0.0,0.0,81,0.00,,,-99.99,WeatherLink 5.5,2013-06-12 09:35:00,
2013-06-12 05:40:00,77.9,-99.9,30.02,North,-999,0.0,0.0,-999,0.00,,,-99.99,WeatherLink 5.5,2013-06-12 09:40:00,
2013-06-12 05:45:00,77.8,-99.9,30.02,North,-999,0.0,0.0,-999,0.00,,,-99.99,WeatherLink 5.5,2013-06-12 09:45:00,
2013-06-12 05:50:00,77.7,-99.9,30.02,North,-999,0.0,0.0,-999,0.00,,,-99.99,WeatherLink 5.5,2013-06-12 09:50:00,
2013-06-12 05:55:00,77.7,-99.9,30.02,North,-999,0.0,0.0,-999,0.00,,,-99.99,WeatherLink 5.5,2013-06-12 09:55:00,
2013-06-12 06:00:00,77.6,-99.9,30.03,North,-999,0.0,0.0,-999,0.00,,,-99.99,WeatherLink 5.5,2013-06-12 10:00:00,
2013-06-12 06:05:00,77.6,-99.9,30.03,North,-999,0.0,0.0,-999,0.00,,,-99.99,WeatherLink 5.5,2013-06-12 10:05:00,
2013-06-12 06:10:00,77.6,-99.9,30.03,North,-999,0.0,0.0,-999,0.00,,,-99.99,WeatherLink 5.5,2013-06-12 10:10:00,
2013-06-12 06:15:00,77.6,-99.9,30.03,North,-999,0.0,0.0,-999,0.00,,,-99.99,WeatherLink 5.5,2013-06-12 10:15:00,
2013-06-12 06:20:00,77.6,71.3,30.04,North,-999,0.0,0.0,81,0.00,,,-99.99,WeatherLink 5.5,2013-06-12 10:20:00,
2013-06-12 06:25:00,77.6,-99.9,30.03,North,-999,0.0,0.0,-999,0.00,,,-99.99,WeatherLink 5.5,2013-06-12 10:25:00,
2013-06-12 06:30:00,77.5,-99.9,30.03,North,-999,0.0,0.0,-999,0.00,,,-99.99,WeatherLink 5.5,2013-06-12 10:30:00,
2013-06-12 06:35:00,77.5,-99.9,30.03,North,-999,0.0,0.0,-999,0.00,,,-99.99,WeatherLink 5.5,2013-06-12 10:35:00,
2013-06-12 06:40:00,77.4,71.1,30.03,North,-999,0.0,0.0,81,0.00,,,-99.99,WeatherLink 5.5,2013-06-12 10:40:00,
2013-06-12 06:45:00,77.3,-99.9,30.03,North,-999,0.0,0.0,-999,0.00,,,-99.99,WeatherLink 5.5,2013-06-12 10:45:00,
2013-06-12 06:50:00,77.3,-99.9,30.04,North,-999,0.0,0.0,-999,0.00,,,-99.99,WeatherLink 5.5,2013-06-12 10:50:00,
2013-06-12 06:55:00,77.3,-99.9,30.03,North,-999,0.0,0.0,-999,0.00,,,-99.99,WeatherLink 5.5,2013-06-12 10:55:00,
2013-06-12 07:00:00,77.3,-99.9,30.04,North,-999,0.0,0.0,-999,0.00,,,-99.99,WeatherLink 5.5,2013-06-12 11:00:00,
2013-06-12 07:05:00,77.3,-99.9,30.04,North,-999,0.0,0.0,-999,0.00,,,-99.99,WeatherLink 5.5,2013-06-12 11:05:00,
2013-06-12 07:10:00,77.4,71.1,30.04,North,-999,0.0,0.0,81,0.00,,,-99.99,WeatherLink 5.5,2013-06-12 11:10:00,
2013-06-12 07:15:00,77.4,-99.9,30.04,North,-999,0.0,0.0,-999,0.00,,,-99.99,WeatherLink 5.5,2013-06-12 11:15:00,
2013-06-12 07:20:00,77.5,-99.9,30.03,North,-999,0.0,0.0,-999,0.00,,,-99.99,WeatherLink 5.5,2013-06-12 11:20:00,
2013-06-12 07:25:00,77.6,-99.9,30.03,North,-999,0.0,0.0,-999,0.00,,,-99.99,WeatherLink 5.5,2013-06-12 11:25:00,
2013-06-12 07:30:00,77.7,-99.9,30.03,North,-999,0.0,0.0,-999,0.00,,,-99.99,WeatherLink 5.5,2013-06-12 11:30:00,
2013-06-12 07:35:00,77.9,71.6,30.03,North,-999,0.0,0.0,81,0.00,,,-99.99,WeatherLink 5.5,2013-06-12 11:35:00,
2013-06-12 07:40:00,78.1,-99.9,30.04,North,-999,0.0,0.0,-999,0.00,,,-99.99,WeatherLink 5.5,2013-06-12 11:40:00,
2013-06-12 07:45:00,78.4,-99.9,30.04,North,-999,0.0,0.0,-999,0.00,,,-99.99,WeatherLink 5.5,2013-06-12 11:45:00,
2013-06-12 07:50:00,78.8,-99.9,30.03,North,-999,0.0,0.0,-999,0.00,,,-99.99,WeatherLink 5.5,2013-06-12 11:50:00,
2013-06-12 07:55:00,79.1,-99.9,30.04,North,-999,0.0,0.0,-999,0.00,,,-99.99,WeatherLink 5.5,2013-06-12 11:55:00,
2013-06-12 08:00:00,79.3,-99.9,30.05,North,-999,0.0,0.0,-999,0.00,,,-99.99,WeatherLink 5.5,2013-06-12 12:00:00,
2013-06-12 08:05:00,79.7,-99.9,30.05,North,-999,0.0,0.0,-999,0.00,,,-99.99,WeatherLink 5.5,2013-06-12 12:05:00,
2013-06-12 08:10:00,80.1,-99.9,30.05,North,-999,0.0,0.0,-999,0.00,,,-99.99,WeatherLink 5.5,2013-06-12 12:10:00,
2013-06-12 08:15:00,80.5,-99.9,30.06,North,-999,0.0,0.0,-999,0.00,,,-99.99,WeatherLink 5.5,2013-06-12 12:15:00,
2013-06-12 08:20:00,80.9,-99.9,30.05,North,-999,0.0,0.0,-999,0.00,,,-99.99,WeatherLink 5.5,2013-06-12 12:20:00,
2013-06-12 08:25:00,81.3,-99.9,30.05,North,-999,0.0,0.0,-999,0.00,,,-99.99,WeatherLink 5.5,2013-06-12 12:25:00,
2013-06-12 08:30:00,81.9,-99.9,30.05,North,-999,0.0,0.0,-999,0.00,,,-99.99,WeatherLink 5.5,2013-06-12 12:30:00,
2013-06-12 08:35:00,82.4,-99.9,30.05,North,-999,0.0,0.0,-999,0.00,,,-99.99,WeatherLink 5.5,2013-06-12 12:35:00,
2013-06-12 08:40:00,82.9,-99.9,30.05,North,-999,0.0,0.0,-999,0.00,,,-99.99,WeatherLink 5.5,2013-06-12 12:40:00,
2013-06-12 08:45:00,83.4,-99.9,30.05,North,-999,0.0,0.0,-999,0.00,,,-99.99,WeatherLink 5.5,2013-06-12 12:45:00,
2013-06-12 08:50:00,83.8,-99.9,30.05,North,-999,0.0,0.0,-999,0.00,,,-99.99,WeatherLink 5.5,2013-06-12 12:50:00,
2013-06-12 08:55:00,83.9,-99.9,30.05,SE,135,0.0,1.0,-999,0.00,,,-99.99,WeatherLink 5.5,2013-06-12 12:55:00,
2013-06-12 09:00:00,83.8,-99.9,30.05,North,-999,0.0,0.0,-999,0.00,,,-99.99,WeatherLink 5.5,2013-06-12 13:00:00,
2013-06-12 09:05:00,83.7,-99.9,30.05,North,-999,0.0,0.0,-999,0.00,,,-99.99,WeatherLink 5.5,2013-06-12 13:05:00,
2013-06-12 09:16:00,83.8,-99.9,30.05,North,-999,0.0,0.0,-999,0.00,,,-99.99,WeatherLink 5.5,2013-06-12 13:16:00,
2013-06-12 09:26:00,83.9,-99.9,30.05,North,-999,0.0,0.0,-999,0.00,,,-99.99,WeatherLink 5.5,2013-06-12 13:26:00,
2013-06-12 09:35:00,84.0,-99.9,30.05,North,-999,0.0,0.0,-999,0.00,,,-99.99,WeatherLink 5.5,2013-06-12 13:35:00,
2013-06-12 09:41:00,84.3,-99.9,30.05,North,-999,0.0,0.0,-999,0.00,,,-99.99,WeatherLink 5.5,2013-06-12 13:41:00,
2013-06-12 09:50:00,85.5,-99.9,30.04,North,-999,0.0,1.0,-999,0.00,,,-99.99,WeatherLink 5.5,2013-06-12 13:50:00,
2013-06-12 10:00:00,86.1,-99.9,30.05,SSE,157,0.0,1.0,-999,0.00,,,-99.99,WeatherLink 5.5,2013-06-12 14:00:00,
2013-06-12 10:06:00,86.7,-99.9,30.04,SSE,157,0.0,1.0,-999,0.00,,,-99.99,WeatherLink 5.5,2013-06-12 14:06:00,
2013-06-12 10:15:00,87.6,-99.9,30.05,SSE,157,0.0,1.0,-999,0.00,,,-99.99,WeatherLink 5.5,2013-06-12 14:15:00,
2013-06-12 10:25:00,88.0,-99.9,30.05,SSE,157,0.0,1.0,-999,0.00,,,-99.99,WeatherLink 5.5,2013-06-12 14:25:00,
2013-06-12 10:30:00,88.3,-99.9,30.05,North,-999,0.0,1.0,-999,0.00,,,-99.99,WeatherLink 5.5,2013-06-12 14:30:00,
2013-06-12 10:40:00,88.6,-99.9,30.04,SSE,157,0.0,1.0,-999,0.00,,,-99.99,WeatherLink 5.5,2013-06-12 14:40:00,
2013-06-12 10:46:00,88.7,-99.9,30.04,SSE,157,0.0,1.0,-999,0.00,,,-99.99,WeatherLink 5.5,2013-06-12 14:46:00,
2013-06-12 10:55:00,88.9,-99.9,30.03,North,-999,0.0,0.0,-999,0.00,,,-99.99,WeatherLink 5.5,2013-06-12 14:55:00,
2013-06-12 11:06:00,89.0,-99.9,30.05,SSE,157,0.0,1.0,-999,0.00,,,-99.99,WeatherLink 5.5,2013-06-12 15:06:00,
2013-06-12 11:16:00,89.7,-99.9,30.05,SSE,157,0.0,1.0,-999,0.00,,,-99.99,WeatherLink 5.5,2013-06-12 15:16:00,
2013-06-12 11:26:00,90.1,-99.9,30.04,SE,135,0.0,4.0,-999,0.00,,,-99.99,WeatherLink 5.5,2013-06-12 15:26:00,
2013-06-12 11:31:00,90.1,-99.9,30.05,SE,135,0.0,1.0,-999,0.00,,,-99.99,WeatherLink 5.5,2013-06-12 15:31:00,
2013-06-12 11:42:00,90.0,84.5,30.07,SE,135,0.0,1.0,84,0.00,,,-99.99,WeatherLink 5.5,2013-06-12 15:42:00,
2013-06-12 11:50:00,88.7,88.7,30.05,North,-999,0.0,0.0,100,0.00,,,-99.99,WeatherLink 5.5,2013-06-12 15:50:00,
2013-06-12 12:00:00,87.4,87.4,30.05,North,-999,0.0,0.0,100,0.00,,,-99.99,WeatherLink 5.5,2013-06-12 16:00:00,
2013-06-12 12:06:00,86.9,86.9,30.05,SE,135,1.0,6.0,100,0.00,,,-99.99,WeatherLink 5.5,2013-06-12 16:06:00,
2013-06-12 12:15:00,85.7,85.7,30.05,ENE,67,2.0,8.0,100,0.01,,,-99.99,WeatherLink 5.5,2013-06-12 16:15:00,
2013-06-12 12:26:00,83.6,83.6,30.05,ENE,67,4.0,11.0,100,0.04,,,-99.99,WeatherLink 5.5,2013-06-12 16:26:00,
2013-06-12 12:35:00,82.6,80.0,30.06,East,90,2.0,7.0,92,0.04,,,-99.99,WeatherLink 5.5,2013-06-12 16:35:00,
2013-06-12 12:45:00,82.3,76.6,30.14,East,90,1.0,6.0,83,0.04,,,-99.99,WeatherLink 5.5,2013-06-12 16:45:00,
2013-06-12 12:55:00,80.1,80.1,30.07,SW,225,4.0,9.0,100,0.05,,,-99.99,WeatherLink 5.5,2013-06-12 16:55:00,
2013-06-12 13:01:00,78.8,78.8,30.06,SW,225,2.0,6.0,100,0.07,,,-99.99,WeatherLink 5.5,2013-06-12 17:01:00,
2013-06-12 13:10:00,77.2,72.0,30.12,West,270,3.0,9.0,84,0.09,,,-99.99,WeatherLink 5.5,2013-06-12 17:10:00,
2013-06-12 13:20:00,76.6,70.3,30.05,West,270,0.0,4.0,81,0.07,,,-99.99,WeatherLink 5.5,2013-06-12 17:20:00,
2013-06-12 13:30:00,76.6,70.3,30.04,North,-999,0.0,0.0,81,0.06,,,-99.99,WeatherLink 5.5,2013-06-12 17:30:00,
2013-06-12 13:35:00,76.8,-99.9,30.05,North,-999,0.0,0.0,-999,0.06,,,-99.99,WeatherLink 5.5,2013-06-12 17:35:00,
2013-06-12 13:45:00,77.0,-99.9,30.05,North,-999,0.0,0.0,-999,0.06,,,-99.99,WeatherLink 5.5,2013-06-12 17:45:00,
2013-06-12 13:50:00,77.1,-99.9,30.05,North,-999,0.0,0.0,-999,0.06,,,-99.99,WeatherLink 5.5,2013-06-12 17:50:00,
2013-06-12 14:00:00,77.5,-99.9,30.07,North,-999,0.0,0.0,-999,0.03,,,-99.99,WeatherLink 5.5,2013-06-12 18:00:00,
2013-06-12 14:05:00,77.9,-99.9,30.06,North,-999,0.0,0.0,-999,0.01,,,-99.99,WeatherLink 5.5,2013-06-12 18:05:00,
2013-06-12 14:16:00,78.4,-99.9,30.05,North,-999,0.0,0.0,-999,0.01,,,-99.99,WeatherLink 5.5,2013-06-12 18:16:00,
2013-06-12 14:25:00,78.4,-99.9,30.04,North,-999,0.0,0.0,-999,0.00,,,-99.99,WeatherLink 5.5,2013-06-12 18:25:00,
2013-06-12 14:36:00,78.5,-99.9,30.02,North,-999,0.0,0.0,-999,0.00,,,-99.99,WeatherLink 5.5,2013-06-12 18:36:00,
2013-06-12 14:45:00,78.8,-99.9,30.03,North,-999,0.0,0.0,-999,0.00,,,-99.99,WeatherLink 5.5,2013-06-12 18:45:00,
2013-06-12 14:51:00,78.8,-99.9,30.04,North,-999,0.0,0.0,-999,0.00,,,-99.99,WeatherLink 5.5,2013-06-12 18:51:00,
2013-06-12 15:00:00,79.0,-99.9,30.04,North,-999,0.0,0.0,-999,0.00,,,-99.99,WeatherLink 5.5,2013-06-12 19:00:00,
2013-06-12 15:06:00,79.1,72.8,30.04,SSW,202,0.0,3.0,81,0.00,,,-99.99,WeatherLink 5.5,2013-06-12 19:06:00,
2013-06-12 15:15:00,79.2,-99.9,30.05,SSW,202,0.0,1.0,-999,0.00,,,-99.99,WeatherLink 5.5,2013-06-12 19:15:00,
2013-06-12 15:20:00,79.3,-99.9,30.05,SSW,202,1.0,6.0,-999,0.00,,,-99.99,WeatherLink 5.5,2013-06-12 19:20:00,
2013-06-12 15:30:00,79.1,-99.9,30.06,SSW,202,0.0,3.0,-999,0.00,,,-99.99,WeatherLink 5.5,2013-06-12 19:30:00,
2013-06-12 15:35:00,79.1,-99.9,30.06,SSW,202,0.0,5.0,-999,0.00,,,-99.99,WeatherLink 5.5,2013-06-12 19:35:00,
2013-06-12 15:45:00,78.9,-99.9,30.06,North,-999,0.0,0.0,-999,0.00,,,-99.99,WeatherLink 5.5,2013-06-12 19:45:00,
2013-06-12 15:50:00,78.9,-99.9,30.05,SSW,202,0.0,2.0,-999,0.00,,,-99.99,WeatherLink 5.5,2013-06-12 19:50:00,
2013-06-12 16:00:00,78.9,-99.9,30.05,SSW,202,0.0,1.0,-999,0.00,,,-99.99,WeatherLink 5.5,2013-06-12 20:00:00,
2013-06-12 16:05:00,78.9,-99.9,30.05,SSW,202,0.0,1.0,-999,0.00,,,-99.99,WeatherLink 5.5,2013-06-12 20:05:00,
2013-06-12 16:16:00,79.2,-99.9,30.04,SSW,202,0.0,3.0,-999,0.00,,,-99.99,WeatherLink 5.5,2013-06-12 20:16:00,
2013-06-12 16:25:00,79.3,73.0,30.04,North,-999,0.0,0.0,81,0.00,,,-99.99,WeatherLink 5.5,2013-06-12 20:25:00,
2013-06-12 16:31:00,79.3,-99.9,30.03,North,-999,0.0,0.0,-999,0.00,,,-99.99,WeatherLink 5.5,2013-06-12 20:31:00,
2013-06-12 16:40:00,79.6,-99.9,30.02,North,-999,0.0,1.0,-999,0.00,,,-99.99,WeatherLink 5.5,2013-06-12 20:40:00,
2013-06-12 16:46:00,79.7,-99.9,30.02,SE,135,0.0,2.0,-999,0.00,,,-99.99,WeatherLink 5.5,2013-06-12 20:46:00,
2013-06-12 16:55:00,79.7,-99.9,30.02,South,180,0.0,4.0,-999,0.00,,,-99.99,WeatherLink 5.5,2013-06-12 20:55:00,
2013-06-12 17:06:00,79.7,-99.9,30.01,North,-999,0.0,0.0,-999,0.00,,,-99.99,WeatherLink 5.5,2013-06-12 21:06:00,
2013-06-12 17:15:00,80.0,-99.9,30.01,South,180,0.0,2.0,-999,0.00,,,-99.99,WeatherLink 5.5,2013-06-12 21:15:00,
2013-06-12 17:21:00,80.1,-99.9,30.01,South,180,0.0,1.0,-999,0.00,,,-99.99,WeatherLink 5.5,2013-06-12 21:21:00,
2013-06-12 17:30:00,80.2,-99.9,30.02,South,180,0.0,4.0,-999,0.00,,,-99.99,WeatherLink 5.5,2013-06-12 21:30:00,
2013-06-12 17:36:00,80.2,-99.9,30.01,SSW,202,1.0,4.0,-999,0.00,,,-99.99,WeatherLink 5.5,2013-06-12 21:36:00,
2013-06-12 17:45:00,80.2,-99.9,30.01,SSW,202,0.0,3.0,-999,0.00,,,-99.99,WeatherLink 5.5,2013-06-12 21:45:00,
2013-06-12 17:51:00,80.4,-99.9,30.02,SW,225,1.0,5.0,-999,0.00,,,-99.99,WeatherLink 5.5,2013-06-12 21:51:00,
2013-06-12 18:00:00,80.6,-99.9,30.01,North,-999,0.0,0.0,-999,0.00,,,-99.99,WeatherLink 5.5,2013-06-12 22:00:00,
2013-06-12 18:06:00,80.5,-99.9,30.02,SW,225,0.0,1.0,-999,0.00,,,-99.99,WeatherLink 5.5,2013-06-12 22:06:00,
2013-06-12 18:15:00,80.9,-99.9,30.02,North,-999,0.0,0.0,-999,0.00,,,-99.99,WeatherLink 5.5,2013-06-12 22:15:00,
2013-06-12 18:21:00,80.8,-99.9,30.02,SW,225,1.0,4.0,-999,0.00,,,-99.99,WeatherLink 5.5,2013-06-12 22:21:00,
2013-06-12 18:30:00,80.4,-99.9,30.03,SW,225,0.0,3.0,-999,0.00,,,-99.99,WeatherLink 5.5,2013-06-12 22:30:00,
2013-06-12 18:40:00,80.3,-99.9,30.03,North,-999,0.0,0.0,-999,0.00,,,-99.99,WeatherLink 5.5,2013-06-12 22:40:00,
2013-06-12 18:50:00,80.0,-99.9,30.02,North,-999,0.0,1.0,-999,0.00,,,-99.99,WeatherLink 5.5,2013-06-12 22:50:00,
2013-06-12 18:55:00,79.9,-99.9,30.02,North,-999,0.0,0.0,-999,0.00,,,-99.99,WeatherLink 5.5,2013-06-12 22:55:00,
2013-06-12 19:06:00,79.9,-99.9,30.03,North,-999,0.0,0.0,-999,0.00,,,-99.99,WeatherLink 5.5,2013-06-12 23:06:00,
2013-06-12 19:15:00,79.8,-99.9,30.03,North,-999,0.0,0.0,-999,0.00,,,-99.99,WeatherLink 5.5,2013-06-12 23:15:00,
2013-06-12 19:20:00,79.6,-99.9,30.03,North,-999,0.0,0.0,-999,0.00,,,-99.99,WeatherLink 5.5,2013-06-12 23:20:00,
2013-06-12 19:31:00,79.5,-99.9,30.03,North,-999,0.0,0.0,-999,0.00,,,-99.99,WeatherLink 5.5,2013-06-12 23:31:00,
2013-06-12 19:40:00,79.5,-99.9,30.04,North,-999,0.0,0.0,-999,0.00,,,-99.99,WeatherLink 5.5,2013-06-12 23:40:00,
2013-06-12 19:46:00,79.3,-99.9,30.03,North,-999,0.0,0.0,-999,0.00,,,-99.99,WeatherLink 5.5,2013-06-12 23:46:00,
2013-06-12 19:55:00,79.3,-99.9,30.03,North,-999,0.0,0.0,-999,0.00,,,-99.99,WeatherLink 5.5,2013-06-12 23:55:00,
2013-06-12 20:01:00,79.2,-99.9,30.03,North,-999,0.0,0.0,-999,0.00,,,-99.99,WeatherLink 5.5,2013-06-13 00:01:00,
2013-06-12 20:10:00,79.1,-99.9,30.03,North,-999,0.0,0.0,-999,0.00,,,-99.99,WeatherLink 5.5,2013-06-13 00:10:00,
2013-06-12 20:21:00,79.0,-99.9,30.03,North,-999,0.0,0.0,-999,0.00,,,-99.99,WeatherLink 5.5,2013-06-13 00:21:00,
2013-06-12 20:30:00,78.9,-99.9,30.03,North,-999,0.0,0.0,-999,0.00,,,-99.99,WeatherLink 5.5,2013-06-13 00:30:00,
2013-06-12 20:36:00,78.8,72.5,30.03,North,-999,0.0,0.0,81,0.00,,,-99.99,WeatherLink 5.5,2013-06-13 00:36:00,
2013-06-12 20:45:00,78.7,-99.9,30.03,North,-999,0.0,0.0,-999,0.00,,,-99.99,WeatherLink 5.5,2013-06-13 00:45:00,
2013-06-12 20:50:00,78.6,-99.9,30.03,North,-999,0.0,0.0,-999,0.00,,,-99.99,WeatherLink 5.5,2013-06-13 00:50:00,
2013-06-12 21:00:00,78.4,-99.9,30.04,North,-999,0.0,0.0,-999,0.00,,,-99.99,WeatherLink 5.5,2013-06-13 01:00:00,
2013-06-12 21:05:00,78.3,-99.9,30.04,North,-999,0.0,0.0,-999,0.00,,,-99.99,WeatherLink 5.5,2013-06-13 01:05:00,
2013-06-12 21:16:00,78.2,-99.9,30.04,North,-999,0.0,0.0,-999,0.00,,,-99.99,WeatherLink 5.5,2013-06-13 01:16:00,
2013-06-12 21:25:00,78.0,-99.9,30.04,North,-999,0.0,0.0,-999,0.00,,,-99.99,WeatherLink 5.5,2013-06-13 01:25:00,
2013-06-12 21:36:00,78.0,-99.9,30.04,North,-999,0.0,0.0,-999,0.00,,,-99.99,WeatherLink 5.5,2013-06-13 01:36:00,
2013-06-12 21:45:00,77.9,-99.9,30.04,North,-999,0.0,0.0,-999,0.00,,,-99.99,WeatherLink 5.5,2013-06-13 01:45:00,
2013-06-12 21:51:00,77.9,-99.9,30.04,North,-999,0.0,0.0,-999,0.00,,,-99.99,WeatherLink 5.5,2013-06-13 01:51:00,
2013-06-12 22:00:00,77.8,-99.9,30.04,North,-999,0.0,0.0,-999,0.00,,,-99.99,WeatherLink 5.5,2013-06-13 02:00:00,
2013-06-12 22:05:00,77.8,-99.9,30.05,North,-999,0.0,0.0,-999,0.00,,,-99.99,WeatherLink 5.5,2013-06-13 02:05:00,
2013-06-12 22:15:00,77.7,-99.9,30.04,North,-999,0.0,0.0,-999,0.00,,,-99.99,WeatherLink 5.5,2013-06-13 02:15:00,
2013-06-12 22:21:00,77.6,-99.9,30.04,North,-999,0.0,0.0,-999,0.00,,,-99.99,WeatherLink 5.5,2013-06-13 02:21:00,
2013-06-12 22:30:00,77.5,-99.9,30.04,North,-999,0.0,0.0,-999,0.00,,,-99.99,WeatherLink 5.5,2013-06-13 02:30:00,
2013-06-12 22:36:00,77.4,-99.9,30.04,North,-999,0.0,0.0,-999,0.00,,,-99.99,WeatherLink 5.5,2013-06-13 02:36:00,
2013-06-12 22:46:00,77.2,-99.9,30.04,North,-999,0.0,0.0,-999,0.00,,,-99.99,WeatherLink 5.5,2013-06-13 02:46:00,
2013-06-12 22:55:00,77.0,-99.9,30.04,North,-999,0.0,0.0,-999,0.00,,,-99.99,WeatherLink 5.5,2013-06-13 02:55:00,
2013-06-12 23:05:00,76.9,-99.9,30.04,North,-999,0.0,0.0,-999,0.00,,,-99.99,WeatherLink 5.5,2013-06-13 03:05:00,
2013-06-12 23:15:00,76.8,-99.9,30.04,North,-999,0.0,0.0,-999,0.00,,,-99.99,WeatherLink 5.5,2013-06-13 03:15:00,
2013-06-12 23:21:00,76.7,-99.9,30.04,North,-999,0.0,0.0,-999,0.00,,,-99.99,WeatherLink 5.5,2013-06-13 03:21:00,
2013-06-12 23:30:00,76.6,-99.9,30.04,North,-999,0.0,0.0,-999,0.00,,,-99.99,WeatherLink 5.5,2013-06-13 03:30:00,
2013-06-12 23:36:00,76.5,-99.9,30.04,North,-999,0.0,0.0,-999,0.00,,,-99.99,WeatherLink 5.5,2013-06-13 03:36:00,
2013-06-12 23:45:00,76.4,-99.9,30.04,North,-999,0.0,0.0,-999,0.00,,,-99.99,WeatherLink 5.5,2013-06-13 03:45:00,
2013-06-12 23:56:00,76.2,-99.9,30.04,North,-999,0.0,0.0,-999,0.00,,,-99.99,WeatherLink 5.5,2013-06-13 03:56:00,